Time;durP1;ratioP1;P1;durP2;ratioP2;P2;SDS_P1;SDS_P2;PMS_P1;PMS_P2;Temp;Humidity;BMP_temperature;BMP_pressure;BME280_temperature;BME280_humidity;BME280_pressure;Samples;Min_cycle;Max_cycle;Signal;HPM_P1;HPM_P2
2023/08/15 00:01:42;;;;;;;8.15;4.28;;;;;;;22.95;75.80;101099.88;5054182;28;20360;-59
2023/08/15 00:04:07;;;;;;;13.85;4.43;;;;;;;22.80;76.45;101107.59;5054169;28;20033;-59
2023/08/15 00:06:33;;;;;;;8.27;4.20;;;;;;;22.69;76.87;101105.25;5054139;28;20040;-60
2023/08/15 00:08:59;;;;;;;10.32;4.50;;;;;;;22.58;78.05;101097.56;5053983;28;20037;-60
2023/08/15 00:11:25;;;;;;;13.85;4.63;;;;;;;22.50;77.78;101095.13;5053736;28;20517;-59
2023/08/15 00:13:53;;;;;;;10.15;4.55;;;;;;;22.49;78.30;101087.13;5054177;28;20025;-58
2023/08/15 00:16:18;;;;;;;11.35;4.60;;;;;;;22.56;77.34;101074.31;5053886;28;20029;-59
2023/08/15 00:18:44;;;;;;;9.75;4.50;;;;;;;22.57;77.09;101079.66;5053892;28;20017;-60
2023/08/15 00:21:09;;;;;;;12.40;4.70;;;;;;;22.62;77.41;101074.09;5054191;28;20033;-59
2023/08/15 00:23:35;;;;;;;10.88;4.68;;;;;;;22.62;77.86;101079.50;5053832;28;20433;-59
2023/08/15 00:26:01;;;;;;;9.38;4.47;;;;;;;22.55;77.55;101076.13;5053647;28;20053;-59
2023/08/15 00:28:26;;;;;;;12.43;4.60;;;;;;;22.40;78.58;101090.13;5035569;28;20120;-59
2023/08/15 00:30:52;;;;;;;12.35;4.75;;;;;;;22.33;79.00;101083.19;5036023;28;20124;-59
2023/08/15 00:33:17;;;;;;;14.13;4.65;;;;;;;22.24;78.96;101097.84;5036112;28;20075;-59
2023/08/15 00:35:43;;;;;;;11.77;4.60;;;;;;;22.21;79.60;101090.72;5053703;28;20131;-59
2023/08/15 00:38:08;;;;;;;11.88;5.10;;;;;;;22.16;79.58;101083.75;5053651;28;20501;-60
2023/08/15 00:40:34;;;;;;;9.02;4.55;;;;;;;22.10;79.43;101081.22;5035592;28;20037;-59
2023/08/15 00:42:59;;;;;;;8.77;4.60;;;;;;;22.05;79.79;101085.88;5053744;28;20043;-59
2023/08/15 00:45:25;;;;;;;8.00;4.35;;;;;;;22.09;79.01;101095.63;5053476;28;20078;-59
2023/08/15 00:47:51;;;;;;;12.05;4.97;;;;;;;22.06;78.30;101096.63;5053489;28;20383;-59
2023/08/15 00:50:16;;;;;;;14.23;4.70;;;;;;;22.16;77.70;101106.16;5034692;28;20029;-59
2023/08/15 00:52:42;;;;;;;13.45;4.85;;;;;;;22.19;77.24;101107.88;5053478;28;20040;-59
2023/08/15 00:55:09;;;;;;;13.52;4.97;;;;;;;22.11;77.37;101104.53;5053502;28;20032;-59
2023/08/15 00:57:35;;;;;;;12.25;4.50;;;;;;;22.16;76.34;101113.38;5052959;28;20036;-59
2023/08/15 01:00:01;;;;;;;12.05;4.47;;;;;;;22.11;75.17;101112.59;5053210;28;20037;-58
2023/08/15 01:02:26;;;;;;;10.98;4.40;;;;;;;22.04;74.62;101114.59;5053085;28;20033;-59
2023/08/15 01:04:52;;;;;;;9.88;4.13;;;;;;;22.03;74.35;101118.22;5052139;28;20104;-58
2023/08/15 01:07:18;;;;;;;10.05;4.20;;;;;;;22.11;74.23;101109.91;5053154;28;20474;-59
2023/08/15 01:09:44;;;;;;;8.15;4.43;;;;;;;22.06;74.38;101107.38;5052647;28;20088;-59
2023/08/15 01:12:21;;;;;;;12.48;4.70;;;;;;;22.02;74.85;101111.09;5052912;28;20051;-60
2023/08/15 01:14:59;;;;;;;13.80;4.78;;;;;;;21.98;75.16;101104.94;5053037;28;20040;-60
2023/08/15 01:17:34;;;;;;;10.70;4.32;;;;;;;21.85;75.88;101102.69;5035151;28;20063;-59
2023/08/15 01:20:06;;;;;;;11.93;4.85;;;;;;;21.83;76.02;101099.16;5053194;28;20107;-59
2023/08/15 01:22:32;;;;;;;;;;;;;;;22.04;73.80;101092.19;5053570;28;20029;-59
2023/08/15 01:24:58;;;;;;;10.18;5.03;;;;;;;21.86;75.48;101089.19;5052897;28;20259;-59
2023/08/15 01:27:23;;;;;;;11.75;4.68;;;;;;;21.86;75.50;101102.63;5052547;28;20479;-59
2023/08/15 01:29:49;;;;;;;12.68;5.03;;;;;;;21.80;75.24;101091.16;5052744;28;20041;-59
2023/08/15 01:32:29;;;;;;;13.43;5.00;;;;;;;21.68;75.66;101092.47;5053029;28;20117;-59
2023/08/15 01:35:05;;;;;;;10.40;4.60;;;;;;;21.57;76.12;101098.16;5052880;28;20053;-59
2023/08/15 01:37:31;;;;;;;10.90;4.43;;;;;;;21.55;74.97;101100.03;5052741;28;20032;-60
2023/08/15 01:39:58;;;;;;;10.05;4.43;;;;;;;21.47;75.02;101112.81;5052937;28;20029;-60
2023/08/15 01:42:25;;;;;;;14.85;4.43;;;;;;;21.41;74.72;101134.50;5052604;28;20427;-58
2023/08/15 01:44:53;;;;;;;12.70;4.43;;;;;;;21.36;73.89;101144.50;5052560;28;20467;-59
2023/08/15 01:47:19;;;;;;;11.27;4.15;;;;;;;21.24;74.28;101141.22;5052903;28;20055;-59
2023/08/15 01:49:45;;;;;;;11.20;4.10;;;;;;;21.13;73.81;101146.03;5035006;28;20102;-60
2023/08/15 01:52:10;;;;;;;10.30;4.20;;;;;;;21.00;74.85;101149.97;5034848;28;20033;-58
2023/08/15 01:54:35;;;;;;;9.23;4.50;;;;;;;20.87;75.21;101153.91;5052609;28;20045;-59
2023/08/15 01:57:01;;;;;;;12.88;3.92;;;;;;;20.88;75.00;101158.38;5034745;28;20029;-59
2023/08/15 01:59:26;;;;;;;12.55;4.30;;;;;;;20.83;75.43;101160.31;5034433;28;20044;-58
2023/08/15 02:01:52;;;;;;;12.93;4.32;;;;;;;20.79;75.90;101153.25;5056236;28;20128;-58
2023/08/15 02:04:17;;;;;;;11.85;4.18;;;;;;;20.70;76.31;101168.66;5056656;28;20127;-59
2023/08/15 02:06:42;;;;;;;13.73;4.40;;;;;;;20.64;76.53;101159.88;5056467;28;20033;-59
2023/08/15 02:09:08;;;;;;;10.15;3.92;;;;;;;20.65;76.44;101164.34;5056337;28;20057;-59
2023/08/15 02:11:33;;;;;;;13.10;4.53;;;;;;;20.66;76.18;101166.09;5056000;28;20053;-59
2023/08/15 02:13:59;;;;;;;10.20;3.78;;;;;;;20.58;76.10;101168.09;5056271;28;20032;-59
2023/08/15 02:16:24;;;;;;;12.55;4.00;;;;;;;20.55;76.22;101177.09;5056450;28;20029;-59
2023/08/15 02:18:49;;;;;;;10.55;4.03;;;;;;;20.58;76.21;101174.34;5056234;28;20029;-59
2023/08/15 02:21:15;;;;;;;9.73;3.95;;;;;;;20.49;76.76;101186.22;5056531;28;20040;-59
2023/08/15 02:23:40;;;;;;;10.65;3.60;;;;;;;20.57;76.57;101187.84;5056118;28;20467;-58
2023/08/15 02:26:06;;;;;;;10.15;3.50;;;;;;;20.51;76.45;101188.84;5055977;28;20036;-59
2023/08/15 02:28:31;;;;;;;8.30;3.58;;;;;;;20.53;76.81;101178.09;5055899;28;20045;-59
2023/08/15 02:30:56;;;;;;;11.32;3.75;;;;;;;20.58;76.55;101195.84;5056211;28;20029;-59
2023/08/15 02:33:22;;;;;;;11.63;3.83;;;;;;;20.47;76.90;101188.03;5055956;28;20033;-58
2023/08/15 02:35:50;;;;;;;9.20;3.65;;;;;;;20.41;77.50;101189.97;5055973;28;20433;-58
2023/08/15 02:38:15;;;;;;;11.27;3.58;;;;;;;20.41;77.10;101189.97;5055865;28;20037;-60
2023/08/15 02:40:42;;;;;;;13.60;3.70;;;;;;;20.40;77.18;101191.78;5055650;28;20029;-58
2023/08/15 02:43:07;;;;;;;8.52;3.47;;;;;;;20.46;77.01;101186.25;5055703;28;20025;-59
2023/08/15 02:45:32;;;;;;;12.18;3.88;;;;;;;20.41;76.75;101182.78;5055960;28;20028;-59
2023/08/15 02:47:58;;;;;;;11.43;3.65;;;;;;;20.39;77.40;101176.59;5055775;28;20532;-59
2023/08/15 02:50:23;;;;;;;9.45;3.30;;;;;;;20.36;77.43;101176.66;5055707;28;20034;-59
2023/08/15 02:52:49;;;;;;;9.43;3.85;;;;;;;20.35;77.51;101168.66;5055865;28;20045;-59
2023/08/15 02:55:14;;;;;;;9.57;3.72;;;;;;;20.35;77.53;101172.22;5055480;28;20510;-59
2023/08/15 02:57:39;;;;;;;10.80;3.75;;;;;;;20.32;77.45;101174.97;5055369;28;20036;-59
2023/08/15 03:00:07;;;;;;;10.90;4.18;;;;;;;20.29;77.81;101177.72;5037521;28;20037;-58
2023/08/15 03:02:33;;;;;;;12.75;3.92;;;;;;;20.22;78.11;101174.31;5055621;28;20029;-59
2023/08/15 03:04:58;;;;;;;12.68;3.92;;;;;;;20.14;78.58;101183.47;5055728;28;20498;-59
2023/08/15 03:07:24;;;;;;;10.27;4.00;;;;;;;20.12;78.65;101187.97;5055325;28;20025;-59
2023/08/15 03:09:49;;;;;;;10.98;3.85;;;;;;;20.02;79.29;101188.19;5054974;28;20083;-59
2023/08/15 03:12:15;;;;;;;9.85;4.07;;;;;;;20.03;79.52;101175.66;5054263;28;20398;-58
2023/08/15 03:14:40;;;;;;;14.68;4.30;;;;;;;19.91;80.08;101174.16;5055026;28;20040;-59
2023/08/15 03:17:07;;;;;;;10.77;4.22;;;;;;;19.95;79.75;101183.00;5053913;28;20026;-59
2023/08/15 03:19:33;;;;;;;11.27;4.22;;;;;;;19.87;80.57;101193.00;5055093;28;20032;-59
2023/08/15 03:21:58;;;;;;;15.52;4.63;;;;;;;19.70;81.79;101188.91;5055160;28;20021;-58
2023/08/15 03:24:27;;;;;;;13.27;4.10;;;;;;;19.62;82.07;101190.88;5055172;28;20391;-58
2023/08/15 03:26:52;;;;;;;10.57;4.20;;;;;;;19.52;82.77;101189.25;5054780;28;20021;-59
2023/08/15 03:29:17;;;;;;;10.52;4.28;;;;;;;19.54;82.54;101190.13;5054486;28;20036;-59
2023/08/15 03:31:43;;;;;;;9.05;3.90;;;;;;;19.61;82.18;101193.56;5054817;28;20111;-58
2023/08/15 03:34:08;;;;;;;11.15;4.03;;;;;;;19.62;82.53;101180.16;5054908;28;20107;-58
2023/08/15 03:36:34;;;;;;;13.45;4.32;;;;;;;19.68;82.20;101184.50;5036861;28;20031;-60
2023/08/15 03:38:59;;;;;;;13.63;4.28;;;;;;;19.68;82.32;101196.09;5054994;28;20059;-59
2023/08/15 03:41:25;;;;;;;15.27;4.43;;;;;;;19.61;82.64;101196.25;5054658;28;20029;-59
2023/08/15 03:43:50;;;;;;;11.60;4.32;;;;;;;19.53;83.27;101193.72;5054605;28;20029;-58
2023/08/15 03:46:15;;;;;;;13.00;4.35;;;;;;;19.45;83.21;101193.88;5054537;28;20052;-59
2023/08/15 03:48:41;;;;;;;12.98;4.75;;;;;;;19.42;83.90;101201.09;5054623;28;20025;-59
2023/08/15 03:51:06;;;;;;;12.85;4.00;;;;;;;19.39;83.80;101196.66;5054523;28;20026;-58
2023/08/15 03:53:32;;;;;;;13.40;4.22;;;;;;;19.31;84.21;101200.41;5054562;28;20037;-59
2023/08/15 03:55:57;;;;;;;12.38;4.10;;;;;;;19.33;84.46;101206.63;5054589;28;20027;-59
2023/08/15 03:58:24;;;;;;;13.82;4.07;;;;;;;19.36;84.31;101211.94;5054061;28;20429;-59
2023/08/15 04:00:49;;;;;;;9.77;4.22;;;;;;;19.29;84.32;101208.47;5054321;28;20029;-59
2023/08/15 04:03:16;;;;;;;11.80;4.35;;;;;;;19.24;85.16;101203.22;5054299;28;20100;-59
2023/08/15 04:05:47;;;;;;;9.32;3.88;;;;;;;19.27;84.89;101202.25;5054280;28;20510;-59
2023/08/15 04:08:14;;;;;;;15.30;4.35;;;;;;;19.22;84.79;101202.34;5054127;28;20475;-59
2023/08/15 04:10:40;;;;;;;10.48;3.95;;;;;;;19.26;84.98;101203.19;5053613;28;20110;-59
2023/08/15 04:13:09;;;;;;;13.38;4.20;;;;;;;19.13;85.97;101210.56;5054083;28;20025;-59
2023/08/15 04:15:36;;;;;;;10.93;4.22;;;;;;;19.16;85.57;101202.47;5054096;28;20493;-59
2023/08/15 04:18:05;;;;;;;11.23;4.72;;;;;;;19.13;85.95;101201.63;5054321;28;20106;-59
2023/08/15 04:20:30;;;;;;;10.40;4.32;;;;;;;19.10;86.17;101193.66;5054136;28;20032;-59
2023/08/15 04:22:56;;;;;;;17.52;5.43;;;;;;;19.00;86.81;101204.53;5053819;28;20475;-59
2023/08/15 04:25:21;;;;;;;12.35;4.10;;;;;;;19.00;86.97;101201.88;5035895;28;20025;-59
2023/08/15 04:27:47;;;;;;;12.18;4.75;;;;;;;19.01;86.79;101206.34;5052199;28;20286;-59
2023/08/15 04:30:12;;;;;;;15.38;4.55;;;;;;;19.04;86.90;101193.78;5053540;28;20379;-58
2023/08/15 04:32:37;;;;;;;14.70;5.05;;;;;;;18.91;87.05;101210.06;5053231;28;20352;-59
2023/08/15 04:35:03;;;;;;;15.73;4.32;;;;;;;18.96;87.21;101216.22;5053292;28;20387;-58
2023/08/15 04:37:29;;;;;;;9.32;4.40;;;;;;;18.94;87.64;101212.69;5053352;28;20112;-58
2023/08/15 04:39:54;;;;;;;12.80;4.70;;;;;;;18.77;87.69;101207.66;5052997;28;20071;-59
2023/08/15 04:42:20;;;;;;;13.43;5.00;;;;;;;18.76;88.11;101221.94;5052934;28;20505;-59
2023/08/15 04:44:45;;;;;;;14.63;4.82;;;;;;;18.79;88.13;101223.66;5053023;28;20076;-59
2023/08/15 04:47:11;;;;;;;14.32;5.00;;;;;;;18.75;88.47;101238.03;5052886;28;20031;-59
2023/08/15 04:49:36;;;;;;;14.60;4.95;;;;;;;18.76;88.23;101235.34;5052843;28;20029;-58
2023/08/15 04:52:02;;;;;;;14.45;5.13;;;;;;;18.77;88.26;101234.41;5052920;28;20120;-58
2023/08/15 04:54:27;;;;;;;14.93;5.13;;;;;;;18.76;88.64;101240.69;5052841;28;20430;-58
2023/08/15 04:56:53;;;;;;;12.07;5.40;;;;;;;18.70;89.30;101254.16;5052743;28;20029;-58
2023/08/15 04:59:18;;;;;;;13.95;5.50;;;;;;;18.59;89.70;101257.91;5052701;28;20068;-58
2023/08/15 05:01:45;;;;;;;14.82;5.05;;;;;;;18.49;90.13;101255.34;5052670;28;20519;-59
2023/08/15 05:04:11;;;;;;;13.15;4.82;;;;;;;18.50;90.60;101267.84;5052948;28;20075;-59
2023/08/15 05:06:36;;;;;;;16.40;5.30;;;;;;;18.48;90.60;101268.75;5052938;28;20025;-59
2023/08/15 05:09:01;;;;;;;12.48;5.13;;;;;;;18.46;91.08;101270.59;5052663;28;20470;-58
2023/08/15 05:11:27;;;;;;;12.13;5.38;;;;;;;18.39;91.36;101271.56;5034343;28;20045;-59
2023/08/15 05:13:52;;;;;;;10.88;5.13;;;;;;;18.44;91.50;101281.28;5034658;28;20041;-59
2023/08/15 05:16:18;;;;;;;16.77;5.60;;;;;;;18.42;91.73;101284.91;5052732;28;20109;-58
2023/08/15 05:18:43;;;;;;;14.50;5.28;;;;;;;18.36;92.10;101293.03;5052563;28;20029;-58
2023/08/15 05:21:08;;;;;;;12.23;5.13;;;;;;;18.36;92.33;101299.25;5052887;28;20466;-58
2023/08/15 05:23:34;;;;;;;14.65;5.43;;;;;;;18.51;92.38;101307.06;5052572;28;20055;-59
2023/08/15 05:25:59;;;;;;;14.60;5.10;;;;;;;18.64;91.80;101306.91;5052240;28;20021;-59
2023/08/15 05:28:24;;;;;;;12.38;5.10;;;;;;;18.79;90.97;101305.78;5052308;28;20104;-58
2023/08/15 05:30:50;;;;;;;13.82;5.10;;;;;;;18.85;91.20;101317.31;5052192;28;20040;-58
2023/08/15 05:33:15;;;;;;;12.15;4.97;;;;;;;18.95;90.82;101312.69;5052358;28;20021;-59
2023/08/15 05:35:42;;;;;;;10.65;4.57;;;;;;;19.11;90.00;101314.19;5056278;28;20024;-59
2023/08/15 05:38:07;;;;;;;13.63;4.93;;;;;;;19.19;89.65;101308.72;5059049;28;20025;-57
2023/08/15 05:40:36;;;;;;;13.52;5.43;;;;;;;19.28;89.56;101308.53;5059048;28;20493;-59
2023/08/15 05:43:01;;;;;;;12.32;4.90;;;;;;;19.40;89.12;101310.09;5040939;28;20039;-59
2023/08/15 05:45:27;;;;;;;12.45;5.25;;;;;;;19.54;89.15;101302.69;5041015;28;20055;-59
2023/08/15 05:47:52;;;;;;;14.38;5.18;;;;;;;19.66;88.39;101297.16;5059162;28;20112;-58
2023/08/15 05:50:18;;;;;;;16.65;4.97;;;;;;;19.81;87.74;101308.47;5058756;28;20071;-58
2023/08/15 05:52:43;;;;;;;11.65;4.85;;;;;;;19.89;87.75;101307.41;5058950;28;20032;-58
2023/08/15 05:55:08;;;;;;;13.80;5.78;;;;;;;19.98;87.24;101320.63;5058930;28;20036;-58
2023/08/15 05:57:34;;;;;;;11.38;5.30;;;;;;;20.05;86.41;101324.06;5058846;28;20025;-58
2023/08/15 05:59:59;;;;;;;14.23;5.20;;;;;;;20.21;86.56;101319.25;5059077;28;20124;-59
2023/08/15 06:02:25;;;;;;;13.50;5.20;;;;;;;20.29;85.92;101322.66;5040912;28;20029;-59
2023/08/15 06:04:51;;;;;;;15.68;5.53;;;;;;;20.43;85.97;101330.41;5040830;28;20048;-59
2023/08/15 06:07:16;;;;;;;15.30;5.40;;;;;;;20.60;84.95;101327.34;5058778;28;20039;-59
2023/08/15 06:09:42;;;;;;;12.40;5.38;;;;;;;20.76;83.80;101329.66;5040417;28;20109;-59
2023/08/15 06:12:07;;;;;;;13.75;6.00;;;;;;;20.92;83.33;101326.59;5058560;28;20112;-59
2023/08/15 06:14:34;;;;;;;12.70;5.65;;;;;;;20.96;82.74;101334.56;5058762;28;20470;-59
2023/08/15 06:16:59;;;;;;;17.88;5.57;;;;;;;21.02;82.42;101342.44;5058428;28;20033;-59
2023/08/15 06:19:25;;;;;;;13.98;5.78;;;;;;;21.11;81.99;101351.22;5040747;28;20043;-59
2023/08/15 06:21:50;;;;;;;14.57;5.80;;;;;;;21.24;81.36;101356.25;5058589;28;20036;-60
2023/08/15 06:24:16;;;;;;;14.23;5.70;;;;;;;21.25;81.09;101349.09;5058534;28;20105;-58
2023/08/15 06:26:41;;;;;;;10.48;5.50;;;;;;;21.35;80.95;101350.63;5058688;28;20132;-59
2023/08/15 06:29:07;;;;;;;15.23;5.97;;;;;;;21.21;80.87;101348.28;5058384;28;20107;-59
2023/08/15 06:31:34;;;;;;;18.45;5.90;;;;;;;21.25;81.19;101358.03;5058909;28;20067;-59
2023/08/15 06:34:01;;;;;;;15.95;6.38;;;;;;;21.36;80.45;101357.75;5058743;28;20047;-59
2023/08/15 06:36:27;;;;;;;14.88;6.40;;;;;;;21.27;81.01;101345.41;5040594;28;20470;-59
2023/08/15 06:38:52;;;;;;;13.18;5.88;;;;;;;21.37;81.01;101359.56;5058555;28;20086;-60
2023/08/15 06:41:18;;;;;;;12.60;6.18;;;;;;;21.52;80.61;101368.13;5058351;28;20367;-60
2023/08/15 06:43:44;;;;;;;12.70;6.93;;;;;;;21.63;79.94;101364.25;5058478;28;20147;-60
2023/08/15 06:46:11;;;;;;;15.38;6.22;;;;;;;21.74;79.29;101359.44;5057240;28;20033;-59
2023/08/15 06:48:36;;;;;;;15.13;6.28;;;;;;;21.96;78.47;101365.09;5054665;28;20029;-59
2023/08/15 06:51:03;;;;;;;13.02;5.78;;;;;;;22.14;77.20;101366.44;5055243;28;20029;-59
2023/08/15 06:53:29;;;;;;;12.55;5.30;;;;;;;22.38;75.98;101358.56;5055165;28;20037;-59
2023/08/15 06:55:54;;;;;;;14.85;5.60;;;;;;;22.43;76.04;101367.38;5055054;28;20075;-60
2023/08/15 06:58:20;;;;;;;14.52;6.00;;;;;;;22.59;73.79;101365.13;5055069;28;20119;-60
2023/08/15 07:00:46;;;;;;;13.30;5.75;;;;;;;22.69;74.02;101367.47;5055181;28;20037;-59
2023/08/15 07:03:13;;;;;;;13.95;6.15;;;;;;;22.76;73.84;101370.84;5037050;28;20096;-59
2023/08/15 07:05:38;;;;;;;11.18;5.63;;;;;;;22.99;72.86;101368.31;5055484;28;20100;-59
2023/08/15 07:08:04;;;;;;;16.13;5.75;;;;;;;23.18;71.99;101374.00;5054859;28;20479;-59
2023/08/15 07:10:30;;;;;;;13.73;5.35;;;;;;;23.33;71.62;101363.63;5054693;28;20103;-58
2023/08/15 07:12:56;;;;;;;12.80;5.35;;;;;;;23.47;71.33;101366.75;5054550;28;20029;-59
2023/08/15 07:15:21;;;;;;;13.23;5.00;;;;;;;23.59;69.08;101371.69;5050595;28;20033;-58
2023/08/15 07:17:46;;;;;;;12.23;5.25;;;;;;;23.69;69.31;101373.19;5047422;28;20066;-58
2023/08/15 07:20:15;;;;;;;11.75;5.10;;;;;;;23.61;69.89;101380.66;5034867;28;20037;-59
2023/08/15 07:22:41;;;;;;;10.27;4.72;;;;;;;23.69;69.77;101377.72;5034865;28;20041;-60
2023/08/15 07:25:07;;;;;;;14.52;5.07;;;;;;;23.73;68.77;101382.06;5034612;28;20087;-59
2023/08/15 07:27:33;;;;;;;12.25;4.68;;;;;;;23.71;69.20;101378.53;5034497;28;20029;-58
2023/08/15 07:29:59;;;;;;;11.35;4.70;;;;;;;23.74;70.20;101392.81;5016592;28;20025;-60
2023/08/15 07:32:28;;;;;;;15.55;4.88;;;;;;;23.74;68.75;101394.63;5034609;28;20498;-60
2023/08/15 07:34:54;;;;;;;12.30;4.80;;;;;;;23.88;68.09;101389.59;5034816;28;20034;-59
2023/08/15 07:37:19;;;;;;;15.50;4.55;;;;;;;23.83;69.12;101383.50;5016991;28;20485;-59
2023/08/15 07:39:45;;;;;;;12.50;4.57;;;;;;;23.97;67.50;101391.09;5034446;28;20107;-59
2023/08/15 07:42:10;;;;;;;13.30;4.32;;;;;;;23.87;67.69;101397.75;5034221;28;20060;-59
2023/08/15 07:44:36;;;;;;;17.08;4.32;;;;;;;23.87;67.97;101409.44;5034172;28;20395;-58
2023/08/15 07:47:01;;;;;;;10.80;4.20;;;;;;;24.01;67.92;101399.97;5034142;28;20113;-58
2023/08/15 07:49:30;;;;;;;10.60;3.97;;;;;;;24.02;67.66;101399.91;5034004;28;20108;-59
2023/08/15 07:51:56;;;;;;;12.63;3.92;;;;;;;23.83;68.04;101396.13;5034163;28;20039;-59
2023/08/15 07:54:21;;;;;;;10.43;3.85;;;;;;;23.75;67.81;101404.47;5033806;28;20029;-59
2023/08/15 07:56:46;;;;;;;10.57;3.75;;;;;;;23.67;67.82;101402.03;5016098;28;20083;-58
2023/08/15 07:59:12;;;;;;;16.83;3.60;;;;;;;23.71;67.82;101411.78;5033246;28;20026;-58
2023/08/15 08:01:37;;;;;;;11.50;3.78;;;;;;;23.76;67.95;101417.03;5033705;28;20441;-58
2023/08/15 08:04:03;;;;;;;10.50;3.60;;;;;;;23.99;67.23;101416.22;5033634;28;20021;-59
2023/08/15 08:06:28;;;;;;;8.95;3.25;;;;;;;24.07;66.68;101416.84;5033769;28;20108;-58
2023/08/15 08:08:54;;;;;;;10.30;3.60;;;;;;;24.17;66.68;101412.84;5033728;28;20049;-58
2023/08/15 08:11:19;;;;;;;11.90;3.60;;;;;;;24.36;66.32;101415.72;5015491;28;20511;-59
2023/08/15 08:13:44;;;;;;;9.88;3.70;;;;;;;24.22;65.58;101416.25;5033708;28;20048;-59
2023/08/15 08:16:10;;;;;;;14.32;3.58;;;;;;;24.18;65.60;101421.84;5033808;28;20037;-60
2023/08/15 08:18:36;;;;;;;15.65;3.65;;;;;;;24.22;66.06;101413.56;5053457;28;20110;-60
2023/08/15 08:21:03;;;;;;;11.40;3.58;;;;;;;24.26;65.55;101422.44;5053610;28;20480;-60
2023/08/15 08:23:29;;;;;;;8.82;3.40;;;;;;;24.32;65.82;101414.09;5053782;28;20108;-59
2023/08/15 08:25:54;;;;;;;11.00;3.67;;;;;;;24.48;64.36;101418.00;5053233;28;20155;-57
2023/08/15 08:28:20;;;;;;;12.75;4.05;;;;;;;24.66;64.14;101412.84;5051758;28;20386;-58
2023/08/15 08:30:45;;;;;;;11.07;3.60;;;;;;;24.76;64.88;101414.25;5052942;28;20021;-58
2023/08/15 08:33:12;;;;;;;11.90;3.95;;;;;;;24.52;65.17;101415.19;5053018;28;20478;-58
2023/08/15 08:35:38;;;;;;;11.80;3.92;;;;;;;24.52;65.46;101416.09;5053057;28;20036;-58
2023/08/15 08:38:03;;;;;;;13.55;3.80;;;;;;;24.46;64.83;101419.91;5052460;28;20309;-59
2023/08/15 08:40:29;;;;;;;14.82;3.90;;;;;;;24.57;65.33;101418.59;5053050;28;20033;-59
2023/08/15 08:42:54;;;;;;;13.18;4.20;;;;;;;24.44;65.90;101418.19;5052723;28;20122;-58
2023/08/15 08:45:26;;;;;;;11.25;3.90;;;;;;;24.60;65.56;101413.97;5052735;28;20037;-58
2023/08/15 08:47:52;;;;;;;10.00;3.70;;;;;;;24.57;65.86;101419.47;5052638;28;20025;-58
2023/08/15 08:50:18;;;;;;;12.70;3.90;;;;;;;24.58;65.06;101425.75;5051936;28;20085;-58
2023/08/15 08:52:50;;;;;;;10.40;3.90;;;;;;;24.51;65.52;101418.84;5052483;28;20489;-58
2023/08/15 08:55:19;;;;;;;;;;;;;;;24.65;66.34;101411.09;5051471;28;20387;-57
2023/08/15 08:57:49;;;;;;;10.95;3.35;;;;;;;24.61;65.49;101423.84;5052481;28;19938;-57
2023/08/15 09:00:16;;;;;;;12.68;3.60;;;;;;;24.69;65.28;101426.25;5052850;28;20048;-58
2023/08/15 09:02:43;;;;;;;9.43;4.18;;;;;;;24.86;65.01;101418.34;5052080;28;20025;-58
2023/08/15 09:05:09;;;;;;;12.18;3.95;;;;;;;24.89;64.40;101426.34;5051291;28;20032;-57
2023/08/15 09:07:35;;;;;;;9.85;3.55;;;;;;;25.09;63.66;101428.28;5052394;28;20104;-58
2023/08/15 09:10:02;;;;;;;11.05;4.13;;;;;;;24.86;63.28;101431.88;5053167;28;20107;-58
2023/08/15 09:12:35;;;;;;;13.68;3.85;;;;;;;24.94;64.34;101429.75;5054346;28;20444;-57
2023/08/15 09:15:01;;;;;;;10.75;3.67;;;;;;;25.00;63.87;101436.72;5072657;28;20089;-57
2023/08/15 09:17:27;;;;;;;11.20;3.50;;;;;;;25.03;63.69;101433.91;5072742;28;20409;-56
2023/08/15 09:19:53;;;;;;;12.98;3.75;;;;;;;25.09;63.65;101427.41;5054409;28;20047;-60
2023/08/15 09:22:24;;;;;;;9.90;3.75;;;;;;;25.27;64.00;101442.91;5072355;28;20490;-59
2023/08/15 09:24:51;;;;;;;11.73;3.88;;;;;;;25.51;61.96;101431.97;5072562;28;20082;-58
2023/08/15 09:27:19;;;;;;;14.65;3.80;;;;;;;25.65;61.60;101435.88;5072733;28;20103;-58
2023/08/15 09:29:45;;;;;;;13.07;3.60;;;;;;;25.96;61.33;101450.84;5072433;28;20033;-59
2023/08/15 09:32:11;;;;;;;10.77;3.63;;;;;;;26.05;60.00;101453.13;5072356;28;20433;-58
2023/08/15 09:34:37;;;;;;;13.18;3.70;;;;;;;26.27;58.90;101452.16;5072314;28;20033;-59
2023/08/15 09:37:02;;;;;;;10.00;3.47;;;;;;;26.56;58.74;101453.59;5053998;28;20028;-59
2023/08/15 09:39:28;;;;;;;10.45;3.67;;;;;;;26.83;58.28;101460.41;5072228;28;20029;-59
2023/08/15 09:41:53;;;;;;;11.27;3.70;;;;;;;27.16;57.60;101452.53;5037552;28;20116;-60
2023/08/15 09:44:34;;;;;;;8.95;3.45;;;;;;;27.51;57.90;101459.88;5050698;28;20036;-60
2023/08/15 09:47:04;;;;;;;11.27;4.00;;;;;;;27.57;56.07;101454.13;5052007;28;20041;-60
2023/08/15 09:49:30;;;;;;;10.02;4.13;;;;;;;27.89;55.06;101466.09;5050742;28;20021;-60
2023/08/15 09:51:59;;;;;;;11.35;3.72;;;;;;;27.86;54.89;101449.97;5050705;28;20159;-61
2023/08/15 09:54:25;;;;;;;11.55;3.88;;;;;;;27.84;54.89;101465.47;5050859;28;20025;-60
2023/08/15 09:56:51;;;;;;;9.80;3.65;;;;;;;27.85;53.88;101462.66;5050528;28;20182;-59
2023/08/15 09:59:17;;;;;;;12.60;3.65;;;;;;;27.75;54.49;101461.41;5036045;28;20475;-59
2023/08/15 10:01:45;;;;;;;11.35;3.47;;;;;;;27.64;54.88;101467.31;5039878;28;20534;-60
2023/08/15 10:04:12;;;;;;;11.15;3.70;;;;;;;27.55;54.35;101478.66;5045804;28;20030;-60
2023/08/15 10:06:42;;;;;;;13.98;3.78;;;;;;;27.58;54.87;101486.66;5037972;28;20018;-61
2023/08/15 10:09:09;;;;;;;11.57;3.63;;;;;;;27.60;54.09;101483.84;5050013;28;20470;-60
2023/08/15 10:11:40;;;;;;;11.40;3.35;;;;;;;27.65;55.34;101477.22;5037063;28;20057;-60
2023/08/15 10:14:08;;;;;;;7.60;3.20;;;;;;;27.74;52.96;101481.34;5031802;28;20030;-60
2023/08/15 10:16:34;;;;;;;10.75;3.60;;;;;;;28.00;53.64;101482.72;5031774;28;20550;-59
2023/08/15 10:19:01;;;;;;;11.32;3.47;;;;;;;28.24;53.04;101488.72;5031868;28;20021;-60
2023/08/15 10:21:46;;;;;;;13.75;3.53;;;;;;;28.24;53.46;101491.44;5014936;28;20017;-59
2023/08/15 10:24:11;;;;;;;9.73;3.22;;;;;;;28.06;51.56;101486.97;5034826;28;20029;-60
2023/08/15 10:26:38;;;;;;;12.45;3.28;;;;;;;28.19;52.64;101490.78;5035068;28;20146;-59
2023/08/15 10:29:03;;;;;;;10.70;3.13;;;;;;;28.30;50.94;101496.53;5006642;28;20517;-61
2023/08/15 10:31:36;;;;;;;8.80;3.10;;;;;;;28.33;51.49;101490.94;5035209;28;20045;-60
2023/08/15 10:34:11;;;;;;;12.23;3.15;;;;;;;28.59;50.52;101486.84;5034775;28;20026;-60
2023/08/15 10:36:40;;;;;;;8.73;3.40;;;;;;;28.80;50.45;101492.06;5031649;28;20037;-60
2023/08/15 10:39:07;;;;;;;11.68;3.40;;;;;;;28.54;49.42;101505.25;5035750;28;20045;-60
2023/08/15 10:41:37;;;;;;;11.10;3.08;;;;;;;28.09;50.86;101498.53;5034813;28;20025;-60
2023/08/15 10:44:07;;;;;;;11.65;3.10;;;;;;;27.96;51.88;101511.00;5035117;28;20037;-60
2023/08/15 10:46:34;;;;;;;10.45;3.58;;;;;;;28.12;50.09;101501.09;5011788;28;20032;-60
2023/08/15 10:49:09;;;;;;;12.80;3.30;;;;;;;28.05;51.21;101494.25;5035182;28;20029;-59
2023/08/15 10:51:36;;;;;;;11.63;3.20;;;;;;;27.98;50.46;101503.66;5034916;28;20038;-60
2023/08/15 10:54:06;;;;;;;10.05;3.17;;;;;;;27.93;52.15;101500.31;5016696;28;20096;-59
2023/08/15 10:56:36;;;;;;;8.85;2.90;;;;;;;28.21;53.93;101494.28;5034622;28;20101;-58
2023/08/15 10:59:09;;;;;;;9.32;3.00;;;;;;;28.48;50.90;101491.09;5034496;28;20104;-58
2023/08/15 11:01:39;;;;;;;11.02;3.00;;;;;;;28.60;48.87;101496.75;5035376;28;20021;-59
2023/08/15 11:04:08;;;;;;;9.93;3.08;;;;;;;28.81;49.77;101497.41;5034942;28;20053;-60
2023/08/15 11:06:46;;;;;;;7.80;2.63;;;;;;;29.13;49.38;101487.50;5034948;28;20360;-59
2023/08/15 11:09:11;;;;;;;7.25;3.22;;;;;;;28.65;47.88;101494.69;5035157;28;20071;-59
2023/08/15 11:11:37;;;;;;;9.98;2.70;;;;;;;28.26;49.55;101488.63;5049520;28;20072;-60
2023/08/15 11:14:02;;;;;;;9.27;2.90;;;;;;;28.02;49.58;101491.69;5054737;28;20096;-60
2023/08/15 11:16:28;;;;;;;13.98;3.22;;;;;;;27.73;50.37;101485.03;5054496;28;20037;-60